| time (UTC) | temp F | wind direction | speed MPH | gust MPH | rain 1hr in | rain 24hr in | rain mn in | humidity % | barometer mb |
| 20260510181558 | 69 | 193 | 11.0 | 18.0 | 0.00 | 0.00 | 0.00 | 31 | 1013.7 |
| 20260510180109 | 69 | 220 | 14.0 | 23.0 | 0.00 | 0.00 | 0.00 | 32 | 1013.9 |
| 20260510174607 | 67 | 181 | 11.0 | 18.0 | 0.00 | 0.00 | 0.00 | 33 | 1014.1 |
| 20260510173104 | 67 | 188 | 10.0 | 21.0 | 0.00 | 0.00 | 0.00 | 33 | 1014.2 |
| 20260510171601 | 67 | 205 | 12.0 | 23.0 | 0.00 | 0.00 | 0.00 | 34 | 1014.4 |
| 20260510170115 | 66 | 187 | 11.0 | 18.0 | 0.00 | 0.00 | 0.00 | 36 | 1014.6 |
| 20260510164625 | 64 | 177 | 8.0 | 18.0 | 0.00 | 0.00 | 0.00 | 36 | 1014.7 |
| 20260510163107 | 63 | 208 | 9.0 | 16.0 | 0.00 | 0.00 | 0.00 | 38 | 1014.9 |
| 20260510161558 | 62 | 195 | 11.0 | 18.0 | 0.00 | 0.00 | 0.00 | 38 | 1015.1 |
| 20260510160132 | 60 | 188 | 11.0 | 16.0 | 0.00 | 0.00 | 0.00 | 39 | 1015.2 |
| 20260510154609 | 59 | 209 | 12.0 | 17.0 | 0.00 | 0.00 | 0.00 | 39 | 1015.3 |
| 20260510153109 | 58 | 218 | 13.0 | 19.0 | 0.00 | 0.00 | 0.00 | 41 | 1015.3 |
| 20260510151613 | 57 | 197 | 13.0 | 19.0 | 0.00 | 0.00 | 0.00 | 41 | 1015.4 |
| 20260510150111 | 56 | 212 | 11.0 | 17.0 | 0.00 | 0.00 | 0.00 | 42 | 1015.3 |
| 20260510144617 | 55 | 204 | 13.0 | 18.0 | 0.00 | 0.00 | 0.00 | 42 | 1015.3 |
| 20260510143100 | 53 | 210 | 13.0 | 19.0 | 0.00 | 0.00 | 0.00 | 43 | 1015.3 |
| 20260510141559 | 51 | 197 | 12.0 | 18.0 | 0.00 | 0.00 | 0.00 | 45 | 1015.5 |
| 20260510140100 | 50 | 188 | 13.0 | 20.0 | 0.00 | 0.00 | 0.00 | 46 | 1015.7 |
| 20260510134606 | 49 | 187 | 12.0 | 20.0 | 0.00 | 0.00 | 0.00 | 46 | 1015.6 |
| 20260510133058 | 47 | 190 | 13.0 | 19.0 | 0.00 | 0.00 | 0.00 | 48 | 1015.7 |
| 20260510131559 | 46 | 193 | 14.0 | 20.0 | 0.00 | 0.00 | 0.00 | 49 | 1015.8 |
| 20260510130059 | 44 | 200 | 13.0 | 18.0 | 0.00 | 0.00 | 0.00 | 53 | 1015.8 |
| 20260510124612 | 42 | 194 | 11.0 | 18.0 | 0.00 | 0.00 | 0.00 | 54 | 1015.8 |
| 20260510123101 | 40 | 183 | 12.0 | 17.0 | 0.00 | 0.00 | 0.00 | 56 | 1015.9 |
| 20260510121600 | 39 | 193 | 13.0 | 19.0 | 0.00 | 0.00 | 0.00 | 58 | 1016.0 |
| 20260510120100 | 38 | 186 | 13.0 | 17.0 | 0.00 | 0.00 | 0.00 | 60 | 1016.1 |
| 20260510114600 | 38 | 185 | 13.0 | 18.0 | 0.00 | 0.00 | 0.00 | 61 | 1016.2 |
| 20260510113106 | 37 | 181 | 12.0 | 17.0 | 0.00 | 0.00 | 0.00 | 62 | 1016.2 |
| 20260510111602 | 36 | 177 | 12.0 | 17.0 | 0.00 | 0.00 | 0.00 | 63 | 1016.4 |
| 20260510110101 | 36 | 162 | 12.0 | 16.0 | 0.00 | 0.00 | 0.00 | 63 | 1016.5 |
| 20260510104605 | 37 | 175 | 11.0 | 16.0 | 0.00 | 0.00 | 0.00 | 61 | 1016.6 |
| 20260510103102 | 37 | 174 | 13.0 | 20.0 | 0.00 | 0.00 | 0.00 | 60 | 1016.6 |
| 20260510101601 | 37 | 174 | 14.0 | 18.0 | 0.00 | 0.00 | 0.00 | 60 | 1016.7 |
| 20260510100100 | 38 | 182 | 13.0 | 18.0 | 0.00 | 0.00 | 0.00 | 59 | 1016.8 |
| 20260510094614 | 38 | 184 | 12.0 | 18.0 | 0.00 | 0.00 | 0.00 | 59 | 1016.8 |
| 20260510093120 | 38 | 183 | 12.0 | 18.0 | 0.00 | 0.00 | 0.00 | 58 | 1016.5 |
| 20260510091603 | 39 | 192 | 14.0 | 19.0 | 0.00 | 0.00 | 0.00 | 56 | 1016.5 |
| 20260510090114 | 40 | 191 | 14.0 | 19.0 | 0.00 | 0.00 | 0.00 | 55 | 1016.4 |
| 20260510084602 | 39 | 182 | 13.0 | 20.0 | 0.00 | 0.00 | 0.00 | 57 | 1016.6 |
| 20260510083100 | 39 | 176 | 13.0 | 21.0 | 0.00 | 0.00 | 0.00 | 57 | 1016.7 |
| 20260510081600 | 39 | 171 | 13.0 | 18.0 | 0.00 | 0.00 | 0.00 | 58 | 1016.8 |
| 20260510080100 | 39 | 172 | 14.0 | 19.0 | 0.00 | 0.00 | 0.00 | 59 | 1016.8 |
| 20260510074605 | 39 | 173 | 13.0 | 22.0 | 0.00 | 0.00 | 0.00 | 59 | 1016.9 |
| 20260510073058 | 39 | 168 | 12.0 | 18.0 | 0.00 | 0.00 | 0.00 | 59 | 1017.1 |
| 20260510071607 | 39 | 170 | 13.0 | 19.0 | 0.00 | 0.00 | 0.00 | 58 | 1017.0 |
| 20260510070058 | 40 | 174 | 12.0 | 18.0 | 0.00 | 0.00 | 0.00 | 57 | 1017.1 |
| 20260510064602 | 41 | 181 | 12.0 | 18.0 | 0.00 | 0.00 | 0.00 | 57 | 1017.0 |
| 20260510063104 | 40 | 153 | 12.0 | 16.0 | 0.00 | 0.00 | 0.00 | 59 | 1016.9 |
| 20260510061601 | 39 | 162 | 11.0 | 15.0 | 0.00 | 0.00 | 0.00 | 61 | 1017.1 |
| 20260510060104 | 37 | 151 | 8.0 | 11.0 | 0.00 | 0.00 | 0.00 | 64 | 1017.2 |
| 20260510054600 | 36 | 162 | 7.0 | 10.0 | 0.00 | 0.00 | 0.00 | 65 | 1017.0 |
| 20260510053105 | 36 | 148 | 6.0 | 8.0 | 0.00 | 0.00 | 0.00 | 64 | 1017.0 |
| 20260510051559 | 36 | 148 | 6.0 | 8.0 | 0.00 | 0.00 | 0.00 | 64 | 1017.0 |
| 20260510050100 | 37 | 150 | 6.0 | 9.0 | 0.00 | 0.00 | 0.00 | 62 | 1017.1 |
| 20260510044600 | 36 | 136 | 7.0 | 9.0 | 0.00 | 0.00 | 0.00 | 62 | 1017.1 |
| 20260510043105 | 36 | 143 | 6.0 | 8.0 | 0.00 | 0.00 | 0.00 | 63 | 1017.0 |
| 20260510041559 | 36 | 150 | 6.0 | 8.0 | 0.00 | 0.00 | 0.00 | 61 | 1016.9 |
| 20260510040101 | 36 | 144 | 6.0 | 8.0 | 0.00 | 0.00 | 0.00 | 60 | 1016.9 |
| 20260510034600 | 37 | 141 | 5.0 | 8.0 | 0.00 | 0.00 | 0.00 | 58 | 1016.8 |
| 20260510033113 | 39 | 139 | 6.0 | 8.0 | 0.00 | 0.00 | 0.00 | 53 | 1016.9 |
| 20260510031600 | 42 | 117 | 6.0 | 7.0 | 0.00 | 0.00 | 0.00 | 49 | 1016.8 |
| 20260510030108 | 44 | 110 | 6.0 | 8.0 | 0.00 | 0.00 | 0.00 | 48 | 1016.8 |
| 20260510024609 | 47 | 117 | 6.0 | 7.0 | 0.00 | 0.00 | 0.00 | 44 | 1016.7 |
| 20260510023057 | 51 | 106 | 4.0 | 7.0 | 0.00 | 0.00 | 0.00 | 39 | 1016.7 |
| 20260510021601 | 55 | 92 | 4.0 | 7.0 | 0.00 | 0.00 | 0.00 | 35 | 1016.6 |
| 20260510020100 | 58 | 79 | 5.0 | 9.0 | 0.00 | 0.00 | 0.00 | 34 | 1016.7 |
| 20260510014559 | 59 | 35 | 6.0 | 10.0 | 0.00 | 0.00 | 0.00 | 32 | 1016.5 |
| 20260510013101 | 60 | 28 | 9.0 | 12.0 | 0.00 | 0.00 | 0.00 | 33 | 1016.5 |
| 20260510011600 | 59 | 30 | 6.0 | 10.0 | 0.00 | 0.00 | 0.00 | 33 | 1016.4 |
| 20260510010111 | 60 | 21 | 9.0 | 14.0 | 0.00 | 0.00 | 0.00 | 32 | 1016.4 |
| 20260510004602 | 60 | 23 | 6.0 | 12.0 | 0.00 | 0.00 | 0.00 | 32 | 1016.4 |
| 20260510003103 | 60 | 50 | 3.0 | 15.0 | 0.00 | 0.00 | 0.00 | 32 | 1016.3 |
| 20260510001600 | 60 | 337 | 8.0 | 13.0 | 0.00 | 0.00 | 0.00 | 33 | 1016.3 |
| 20260510000103 | 60 | 349 | 7.0 | 11.0 | 0.00 | 0.00 | 0.00 | 34 | 1016.3 |
| 20260509234558 | 59 | 40 | 6.0 | 12.0 | 0.00 | 0.00 | 0.00 | 32 | 1016.2 |
| 20260509233101 | 59 | 19 | 2.0 | 8.0 | 0.00 | 0.00 | 0.00 | 34 | 1016.2 |
| 20260509231601 | 59 | 351 | 3.0 | 11.0 | 0.00 | 0.00 | 0.00 | 33 | 1016.2 |
| 20260509224600 | 58 | 44 | 6.0 | 13.0 | 0.00 | 0.00 | 0.00 | 34 | 1016.3 |
| 20260509223102 | 58 | 24 | 8.0 | 14.0 | 0.00 | 0.00 | 0.00 | 34 | 1016.2 |
| 20260509221559 | 58 | 30 | 7.0 | 14.0 | 0.00 | 0.00 | 0.00 | 34 | 1016.3 |
| 20260509220103 | 59 | 25 | 7.0 | 14.0 | 0.00 | 0.00 | 0.00 | 33 | 1016.3 |
| 20260509214628 | 59 | 44 | 10.0 | 23.0 | 0.00 | 0.00 | 0.00 | 33 | 1016.4 |
| 20260509213104 | 60 | 242 | 4.0 | 18.0 | 0.00 | 0.00 | 0.00 | 34 | 1016.3 |
| 20260509211600 | 59 | 253 | 3.0 | 16.0 | 0.00 | 0.00 | 0.00 | 36 | 1016.4 |
| 20260509210108 | 60 | 328 | 13.0 | 21.0 | 0.00 | 0.00 | 0.00 | 32 | 1016.6 |
| 20260509204600 | 58 | 44 | 9.0 | 17.0 | 0.00 | 0.00 | 0.00 | 35 | 1016.7 |
| 20260509203115 | 58 | 341 | 2.0 | 15.0 | 0.00 | 0.00 | 0.00 | 35 | 1016.6 |
| 20260509201602 | 58 | 323 | 8.0 | 20.0 | 0.00 | 0.00 | 0.00 | 35 | 1016.6 |
| 20260509194601 | 57 | 24 | 9.0 | 17.0 | 0.00 | 0.00 | 0.00 | 37 | 1016.7 |
| 20260509193111 | 56 | 162 | 2.0 | 16.0 | 0.00 | 0.00 | 0.00 | 38 | 1016.7 |
| 20260509191608 | 55 | 339 | 6.0 | 10.0 | 0.00 | 0.00 | 0.00 | 38 | 1016.8 |
| 20260509190100 | 55 | 10 | 9.0 | 16.0 | 0.00 | 0.00 | 0.00 | 38 | 1016.8 |
| 20260509184602 | 55 | 351 | 10.0 | 17.0 | 0.00 | 0.00 | 0.00 | 38 | 1016.8 |
| 20260509183104 | 54 | 18 | 9.0 | 15.0 | 0.00 | 0.00 | 0.00 | 37 | 1016.8 |